Lenzburg, Illinois
Current Conditions -  °F | °C
As of 12:35 PM on Saturday 25 Oct 2014 (Local Time) from KSAR Reporting Station
Clear Clear  
Wind Chill: 73°   Ceiling: Unl
Heat Index: 73°   Visibility: 10mi
Dew Point: 62°   Wind: 5mph
Humidity: 69%   Direction: 300°WNW
Pressure: 30.04"   Gusts: NA
Location:  38.29°N, 89.82°W
Report Text: KSAR 251735Z AUTO 30004KT 10SM CLR 23/17 A3004 RMK AO2 T02280169
Loading
Personal Weather Stations






























Interactive Weather Map
Tropical Storm Tracking
New forecast layout! Learn more

10-Day Weather Forecast

Advertisements
Track Severe Weather on mobile